Time;durP1;ratioP1;P1;durP2;ratioP2;P2;SDS_P1;SDS_P2;PMS_P1;PMS_P2;Temp;Humidity;BMP_temperature;BMP_pressure;BME280_temperature;BME280_humidity;BME280_pressure;Samples;Min_cycle;Max_cycle;Signal;HPM_P1;HPM_P2
2022/03/12 00:00:30;;;;;;;0.00;0.00;;;;;;;10.06;75.86;99078.97;7354836;19;20023;-62
2022/03/12 00:02:57;;;;;;;0.00;0.00;;;;;;;10.07;75.56;99075.44;7362813;19;20766;-62
2022/03/12 00:05:25;;;;;;;0.00;0.00;;;;;;;9.98;75.84;99064.59;7350949;19;20078;-63
2022/03/12 00:07:51;;;;;;;;;;;;;;;10.11;74.76;99077.00;7360174;19;20625;-62
2022/03/12 00:10:18;;;;;;;0.00;0.00;;;;;;;10.02;75.70;99071.38;7353074;19;19918;-63
2022/03/12 00:12:43;;;;;;;0.00;0.00;;;;;;;10.06;75.16;99081.59;7359967;19;20773;-62
2022/03/12 00:15:11;;;;;;;0.00;0.00;;;;;;;10.06;75.04;99078.97;7355039;19;20496;-62
2022/03/12 00:17:43;;;;;;;;;;;;;;;10.07;74.57;99080.66;7360001;19;20015;-62
2022/03/12 00:20:12;;;;;;;0.00;0.00;;;;;;;10.03;75.80;99089.53;7354204;19;19915;-62
2022/03/12 00:22:41;;;;;;;0.00;0.00;;;;;;;9.99;75.52;99082.78;7362073;19;20010;-62
2022/03/12 00:25:11;;;;;;;0.00;0.00;;;;;;;9.99;75.86;99089.78;7354035;19;20021;-62
2022/03/12 00:27:41;;;;;;;0.00;0.00;;;;;;;9.95;75.91;99093.44;7362124;19;20010;-62
2022/03/12 00:30:09;;;;;;;0.00;0.00;;;;;;;9.92;75.67;99091.81;7334462;19;20681;-63
2022/03/12 00:32:37;;;;;;;0.00;0.00;;;;;;;9.89;75.91;99091.97;7358758;19;20010;-63
2022/03/12 00:35:04;;;;;;;0.00;0.00;;;;;;;9.87;75.74;99098.97;7356852;19;20018;-62
2022/03/12 00:37:30;;;;;;;0.00;0.00;;;;;;;9.85;75.78;99100.84;7355271;19;20035;-63
2022/03/12 00:39:56;;;;;;;0.00;0.00;;;;;;;9.71;76.09;99080.59;7359087;19;20766;-62
2022/03/12 00:42:21;;;;;;;0.00;0.00;;;;;;;9.81;75.99;99104.47;7356208;19;20010;-62
2022/03/12 00:44:47;;;;;;;0.00;0.00;;;;;;;9.76;76.27;99093.41;7358442;19;20006;-62
2022/03/12 00:47:13;;;;;;;0.00;0.00;;;;;;;9.76;75.54;99102.09;7358091;19;20010;-63
2022/03/12 00:49:38;;;;;;;0.00;0.00;;;;;;;9.75;76.21;99104.75;7360252;19;20010;-62
2022/03/12 00:52:19;;;;;;;0.01;0.01;;;;;;;9.74;76.18;99103.91;4159489;19;10215952;-62
2022/03/12 00:54:45;;;;;;;0.00;0.00;;;;;;;9.70;76.25;99104.13;5021493;19;10001193;-62
2022/03/12 00:57:12;;;;;;;0.00;0.00;;;;;;;9.69;75.80;99105.03;7355854;19;20055;-63
2022/03/12 00:59:41;;;;;;;0.00;0.00;;;;;;;9.67;75.46;99106.84;7350806;19;20017;-63
2022/03/12 01:02:10;;;;;;;0.00;0.00;;;;;;;9.66;75.69;99113.00;7357114;19;20046;-63
2022/03/12 01:04:36;;;;;;;0.10;0.10;;;;;;;9.61;75.75;99107.97;7353787;19;20027;-62
2022/03/12 01:07:01;;;;;;;0.00;0.00;;;;;;;9.57;75.88;99103.81;7354156;19;20488;-62
2022/03/12 01:09:26;;;;;;;0.03;0.03;;;;;;;9.55;76.18;99111.69;7354963;19;20034;-62
2022/03/12 01:11:52;;;;;;;0.00;0.00;;;;;;;9.50;75.85;99105.00;7358555;19;20010;-63
2022/03/12 01:14:17;;;;;;;0.00;0.00;;;;;;;9.52;76.22;99108.38;7352146;19;20043;-63
2022/03/12 01:16:43;;;;;;;0.00;0.00;;;;;;;9.51;76.49;99104.09;7356913;19;20758;-63
2022/03/12 01:19:08;;;;;;;0.00;0.00;;;;;;;9.50;76.34;99112.81;7359750;19;20022;-63
2022/03/12 01:21:34;;;;;;;0.00;0.00;;;;;;;9.49;76.08;99104.16;7353062;19;20451;-64
2022/03/12 01:23:59;;;;;;;0.00;0.00;;;;;;;9.38;76.35;99090.75;7360758;19;20039;-63
2022/03/12 01:26:25;;;;;;;0.00;0.00;;;;;;;9.46;76.12;99109.50;7359342;19;20030;-63
2022/03/12 01:28:51;;;;;;;0.00;0.00;;;;;;;9.47;76.37;99105.97;7352363;19;20027;-63
2022/03/12 01:31:17;;;;;;;0.00;0.00;;;;;;;9.45;76.14;99106.97;7359876;19;20018;-63
2022/03/12 01:33:42;;;;;;;0.00;0.00;;;;;;;9.45;76.23;99106.97;7354837;19;20034;-63
2022/03/12 01:36:08;;;;;;;0.00;0.00;;;;;;;9.32;75.99;99096.22;7357807;19;20022;-63
2022/03/12 01:39:00;;;;;;;0.00;0.00;;;;;;;9.45;76.15;99113.03;7360125;19;20014;-63
2022/03/12 01:41:30;;;;;;;0.00;0.00;;;;;;;9.45;76.23;99123.44;7256631;19;2004475;-63
2022/03/12 01:43:58;;;;;;;0.00;0.00;;;;;;;9.44;76.39;99126.97;7353977;19;20014;-63
2022/03/12 01:46:33;;;;;;;0.00;0.00;;;;;;;9.45;76.42;99123.44;7356611;19;20014;-63
2022/03/12 01:48:59;;;;;;;0.00;0.00;;;;;;;9.42;76.44;99128.78;7356387;19;20019;-63
2022/03/12 01:51:26;;;;;;;0.00;0.00;;;;;;;9.37;76.43;99120.31;7355048;19;20057;-63
2022/03/12 01:53:52;;;;;;;0.00;0.00;;;;;;;9.43;76.49;99129.63;7358112;19;20003;-63
2022/03/12 01:56:18;;;;;;;0.00;0.00;;;;;;;9.41;76.69;99126.25;7357244;19;20010;-62
2022/03/12 01:58:50;;;;;;;0.00;0.00;;;;;;;9.43;76.94;99125.28;7352967;19;20012;-63
2022/03/12 02:01:18;;;;;;;0.00;0.00;;;;;;;9.43;77.01;99129.63;7354197;19;20612;-63
2022/03/12 02:03:44;;;;;;;;;;;;;;;9.46;75.92;99127.72;7355787;19;20018;-63
2022/03/12 02:06:15;;;;;;;0.00;0.00;;;;;;;9.44;76.41;99126.13;7357651;19;20275;-63
2022/03/12 02:08:40;;;;;;;0.00;0.00;;;;;;;9.38;76.68;99124.63;7356743;19;20373;-62
2022/03/12 02:11:06;;;;;;;0.00;0.00;;;;;;;9.35;77.17;99120.38;7357491;19;20027;-63
2022/03/12 02:13:33;;;;;;;0.00;0.00;;;;;;;9.41;76.99;99136.66;7358158;19;20030;-63
2022/03/12 02:16:07;;;;;;;0.00;0.00;;;;;;;9.42;76.80;99133.97;7356494;19;20926;-62
2022/03/12 02:18:33;;;;;;;0.00;0.00;;;;;;;9.26;77.29;99107.75;7357170;19;20028;-63
2022/03/12 02:20:59;;;;;;;0.00;0.00;;;;;;;9.39;77.23;99128.09;7363539;19;20708;-62
2022/03/12 02:23:24;;;;;;;0.00;0.00;;;;;;;9.43;76.70;99130.50;7358139;19;20579;-63
2022/03/12 02:25:50;;;;;;;0.08;0.08;;;;;;;9.42;76.61;99128.78;7363576;19;20023;-63
2022/03/12 02:28:19;;;;;;;0.08;0.08;;;;;;;9.43;76.43;99130.50;7363303;19;20010;-62
2022/03/12 02:30:51;;;;;;;0.10;0.10;;;;;;;9.43;76.69;99134.81;7360576;19;20014;-62
2022/03/12 02:33:23;;;;;;;0.00;0.00;;;;;;;9.41;76.76;99121.03;7360912;19;20006;-62
2022/03/12 02:35:49;;;;;;;0.00;0.00;;;;;;;9.30;76.42;99113.69;7362758;19;20014;-63
2022/03/12 02:38:28;;;;;;;0.05;0.05;;;;;;;9.42;76.44;99128.78;7361139;19;20522;-63
2022/03/12 02:40:54;;;;;;;0.00;0.00;;;;;;;9.37;76.85;99125.50;7357566;19;20023;-63
2022/03/12 02:43:26;;;;;;;0.00;0.00;;;;;;;9.35;77.47;99127.34;7361996;19;22489;-63
2022/03/12 02:45:53;;;;;;;0.00;0.00;;;;;;;9.31;77.18;99120.56;7363330;19;20022;-63
2022/03/12 02:48:19;;;;;;;0.00;0.00;;;;;;;9.16;77.34;99109.06;7357213;19;20843;-63
2022/03/12 02:50:45;;;;;;;0.00;0.00;;;;;;;9.20;77.76;99113.22;7364290;19;20010;-62
2022/03/12 02:53:11;;;;;;;0.00;0.00;;;;;;;9.21;77.38;99119.28;7362763;19;20527;-63
2022/03/12 02:55:40;;;;;;;0.00;0.00;;;;;;;9.20;77.86;99125.41;7358499;19;20081;-63
2022/03/12 02:58:09;;;;;;;0.00;0.00;;;;;;;9.17;77.59;99128.13;7356603;19;20071;-63
2022/03/12 03:00:36;;;;;;;0.00;0.00;;;;;;;9.02;77.92;99109.66;7356552;19;20031;-63
2022/03/12 03:03:02;;;;;;;;;;;;;;;9.16;76.28;99131.66;7361520;19;20021;-63
2022/03/12 03:08:04;;;;;;;0.00;0.00;;;;;;;9.09;77.29;99131.91;7345225;19;20013;-63
2022/03/12 03:10:35;;;;;;;0.10;0.10;;;;;;;9.07;77.38;99125.94;7358528;19;20058;-63
2022/03/12 03:13:34;;;;;;;0.00;0.00;;;;;;;9.05;77.30;99125.13;7357581;19;20457;-63
2022/03/12 03:16:09;;;;;;;0.00;0.00;;;;;;;9.01;77.16;99123.56;7255280;19;2004395;-63
2022/03/12 03:18:39;;;;;;;0.00;0.00;;;;;;;8.99;77.24;99129.75;7360526;19;20547;-63
2022/03/12 03:21:12;;;;;;;0.00;0.00;;;;;;;8.97;77.47;99132.44;7358780;19;20121;-63
2022/03/12 03:23:38;;;;;;;0.00;0.00;;;;;;;8.95;76.94;99130.78;7359811;19;20028;-63
2022/03/12 03:26:05;;;;;;;0.00;0.00;;;;;;;8.92;76.84;99126.56;7359316;19;20628;-63
2022/03/12 03:28:31;;;;;;;0.00;0.00;;;;;;;8.90;76.96;99123.16;7355654;19;20072;-63
2022/03/12 03:30:56;;;;;;;0.00;0.00;;;;;;;8.88;77.01;99130.19;7360961;19;20035;-63
2022/03/12 03:33:24;;;;;;;0.00;0.00;;;;;;;8.84;76.44;99124.25;7355966;19;20014;-63
2022/03/12 03:35:50;;;;;;;0.03;0.03;;;;;;;8.82;76.33;99128.69;7357420;19;20013;-63
2022/03/12 03:38:24;;;;;;;0.00;0.00;;;;;;;8.75;76.63;99127.22;5481433;19;10150763;-63
2022/03/12 03:40:50;;;;;;;0.00;0.00;;;;;;;8.77;76.30;99142.81;3244338;19;10001753;-63
2022/03/12 03:43:19;;;;;;;0.00;0.00;;;;;;;8.78;76.77;99147.09;7358741;19;20383;-63
2022/03/12 03:45:48;;;;;;;0.00;0.00;;;;;;;8.75;76.38;99144.59;7357422;19;20018;-63
2022/03/12 03:48:19;;;;;;;0.10;0.10;;;;;;;8.75;76.73;99152.41;7358941;19;20010;-63
2022/03/12 03:50:47;;;;;;;0.00;0.00;;;;;;;8.63;76.48;99138.16;7357192;19;20014;-63
2022/03/12 03:53:15;;;;;;;0.00;0.00;;;;;;;8.70;76.46;99154.34;7361755;19;20014;-63
2022/03/12 03:55:42;;;;;;;0.00;0.00;;;;;;;8.68;76.83;99148.38;7355328;19;20508;-63
2022/03/12 03:58:08;;;;;;;0.00;0.00;;;;;;;8.67;76.76;99144.94;7354847;19;20039;-62
2022/03/12 04:00:33;;;;;;;0.00;0.00;;;;;;;8.54;76.77;99128.94;7356328;19;20006;-62
2022/03/12 04:03:02;;;;;;;0.10;0.10;;;;;;;8.66;76.46;99158.81;7354156;19;20034;-62
2022/03/12 04:05:34;;;;;;;0.00;0.00;;;;;;;8.63;76.34;99152.91;7355202;19;20006;-63
2022/03/12 04:08:00;;;;;;;0.00;0.00;;;;;;;8.63;76.43;99164.16;7359167;19;20023;-62
2022/03/12 04:10:27;;;;;;;0.05;0.05;;;;;;;8.55;76.18;99158.41;7358079;19;20565;-63
2022/03/12 04:12:54;;;;;;;0.00;0.00;;;;;;;8.61;75.92;99170.31;7358657;19;20025;-63
2022/03/12 04:15:20;;;;;;;0.00;0.00;;;;;;;8.59;76.17;99183.41;7360445;19;20015;-63
2022/03/12 04:17:46;;;;;;;0.00;0.00;;;;;;;8.57;76.39;99186.06;7358713;19;20968;-63
2022/03/12 04:20:14;;;;;;;0.05;0.05;;;;;;;8.48;76.15;99178.63;7353970;19;20030;-63
2022/03/12 04:22:40;;;;;;;0.10;0.10;;;;;;;8.54;76.76;99186.19;7354213;19;20018;-63
2022/03/12 04:25:11;;;;;;;0.00;0.00;;;;;;;8.51;76.59;99185.44;7363370;19;20668;-63
2022/03/12 04:27:36;;;;;;;0.00;0.00;;;;;;;8.54;76.75;99191.38;7360320;19;20006;-62
2022/03/12 04:30:02;;;;;;;0.00;0.00;;;;;;;8.55;76.87;99198.28;7363183;19;20007;-63
2022/03/12 04:32:28;;;;;;;0.00;0.00;;;;;;;8.57;76.88;99206.88;7360228;19;20728;-64
2022/03/12 04:34:53;;;;;;;0.00;0.00;;;;;;;8.57;77.25;99200.84;7357430;19;20018;-64
2022/03/12 04:37:19;;;;;;;0.00;0.00;;;;;;;8.55;77.53;99208.69;7362151;19;20497;-64
2022/03/12 04:39:48;;;;;;;0.00;0.00;;;;;;;8.54;77.92;99214.78;7362763;19;20027;-64
2022/03/12 04:42:18;;;;;;;0.00;0.00;;;;;;;8.53;77.55;99214.88;7354980;19;20017;-64
2022/03/12 04:44:43;;;;;;;0.00;0.00;;;;;;;8.49;77.78;99216.72;7361064;19;20090;-64
2022/03/12 04:47:10;;;;;;;0.00;0.00;;;;;;;8.36;77.96;99202.47;7361562;19;20034;-64
2022/03/12 04:49:36;;;;;;;0.00;0.00;;;;;;;8.47;77.41;99221.16;7360659;19;20018;-63
2022/03/12 04:52:01;;;;;;;0.00;0.00;;;;;;;8.45;77.60;99222.94;7362670;19;20054;-63
2022/03/12 04:54:33;;;;;;;0.00;0.00;;;;;;;8.47;77.57;99220.31;7358735;19;20030;-64
2022/03/12 04:56:59;;;;;;;0.00;0.00;;;;;;;8.43;77.09;99218.72;7362936;19;20015;-64
2022/03/12 04:59:24;;;;;;;0.00;0.00;;;;;;;8.42;77.61;99228.28;7357386;19;20392;-64
2022/03/12 05:01:50;;;;;;;0.00;0.00;;;;;;;8.41;77.58;99231.75;7356035;19;20081;-63
2022/03/12 05:04:15;;;;;;;0.05;0.05;;;;;;;8.39;77.19;99228.38;7358898;19;20010;-63
2022/03/12 05:06:41;;;;;;;0.00;0.00;;;;;;;8.39;77.50;99233.59;7362674;19;20006;-64
2022/03/12 05:09:06;;;;;;;0.00;0.00;;;;;;;8.38;77.28;99231.91;7355250;19;20089;-63
2022/03/12 05:11:33;;;;;;;0.00;0.00;;;;;;;8.38;77.85;99231.06;7361816;19;20459;-63
2022/03/12 05:13:58;;;;;;;0.00;0.00;;;;;;;8.38;77.72;99237.09;7362866;19;20018;-64
2022/03/12 05:16:28;;;;;;;0.00;0.00;;;;;;;8.38;77.46;99241.44;7358777;19;20458;-64
2022/03/12 05:18:56;;;;;;;0.05;0.05;;;;;;;8.38;77.44;99244.91;7361141;19;20603;-62
2022/03/12 05:21:21;;;;;;;;;;;;;;;8.41;76.29;99236.97;7357094;19;20014;-63
2022/03/12 05:23:46;;;;;;;0.00;0.00;;;;;;;8.39;77.12;99237.94;7357089;19;20543;-64
2022/03/12 05:26:12;;;;;;;0.00;0.00;;;;;;;8.38;77.19;99237.09;7359913;19;20028;-63
2022/03/12 05:28:40;;;;;;;0.00;0.00;;;;;;;8.36;77.19;99244.09;7357396;19;20006;-63
2022/03/12 05:31:08;;;;;;;0.00;0.00;;;;;;;8.35;76.94;99247.56;7358843;19;20010;-64
2022/03/12 05:33:35;;;;;;;0.00;0.00;;;;;;;8.24;76.99;99234.13;7360424;19;20010;-63
2022/03/12 05:36:14;;;;;;;0.10;0.10;;;;;;;8.34;76.86;99243.28;2955896;19;10022741;-63
2022/03/12 05:38:39;;;;;;;0.00;0.00;;;;;;;8.31;76.95;99251.19;6134431;19;10000765;-62
2022/03/12 05:41:09;;;;;;;0.00;0.00;;;;;;;8.30;76.88;99249.50;7348070;19;20021;-64
2022/03/12 05:43:35;;;;;;;0.03;0.03;;;;;;;8.28;76.88;99251.31;7360153;19;20009;-61
2022/03/12 05:46:01;;;;;;;0.00;0.00;;;;;;;8.27;77.56;99255.66;7353348;19;20006;-64
2022/03/12 05:48:27;;;;;;;0.00;0.00;;;;;;;8.26;77.53;99251.38;7358635;19;20014;-64
2022/03/12 05:50:53;;;;;;;0.00;0.00;;;;;;;8.26;77.16;99258.31;7357563;19;20025;-63
2022/03/12 05:53:19;;;;;;;0.00;0.00;;;;;;;8.24;77.41;99266.16;7338108;19;20386;-64
2022/03/12 05:55:47;;;;;;;0.10;0.10;;;;;;;8.23;77.62;99261.88;7359281;19;20089;-63
2022/03/12 05:58:17;;;;;;;0.00;0.00;;;;;;;7.93;77.00;99214.44;7356981;19;20010;-63
2022/03/12 06:00:43;;;;;;;0.00;0.00;;;;;;;8.19;76.99;99257.69;7357361;19;20010;-64
2022/03/12 06:03:12;;;;;;;0.10;0.10;;;;;;;8.18;77.04;99265.56;7365543;19;20018;-64
2022/03/12 06:05:40;;;;;;;0.05;0.05;;;;;;;8.16;77.11;99268.22;7368010;19;20014;-63
2022/03/12 06:08:07;;;;;;;0.00;0.00;;;;;;;8.13;76.91;99283.06;7359533;19;20022;-63
2022/03/12 06:10:34;;;;;;;0.00;0.00;;;;;;;8.12;77.13;99271.81;7354072;19;20010;-63
2022/03/12 06:13:00;;;;;;;0.00;0.00;;;;;;;8.09;77.03;99278.88;7358142;19;20443;-63
2022/03/12 06:15:27;;;;;;;0.00;0.00;;;;;;;8.07;77.36;99279.78;7351208;19;20569;-63
2022/03/12 06:17:54;;;;;;;0.00;0.00;;;;;;;8.05;77.60;99271.16;7352562;19;20007;-63
2022/03/12 06:20:21;;;;;;;0.00;0.00;;;;;;;8.03;77.08;99283.38;7355333;19;20010;-63
2022/03/12 06:22:47;;;;;;;;;;;;;;;8.04;76.64;99279.88;7350892;19;20010;-64
2022/03/12 06:25:15;;;;;;;0.00;0.00;;;;;;;7.99;76.70;99281.78;7357174;19;19923;-63
2022/03/12 06:27:43;;;;;;;;;;;;;;;8.00;75.56;99291.28;7348529;19;20031;-63
2022/03/12 06:30:11;;;;;;;0.00;0.00;;;;;;;7.82;77.04;99273.75;7357215;19;19919;-63
2022/03/12 06:32:42;;;;;;;;;;;;;;;7.95;76.18;99306.19;7355061;19;20691;-64
2022/03/12 06:35:08;;;;;;;0.00;0.00;;;;;;;7.89;76.18;99311.59;7357801;19;19928;-63
2022/03/12 06:37:34;;;;;;;0.03;0.03;;;;;;;7.85;76.83;99317.78;7353669;19;20014;-63
2022/03/12 06:40:00;;;;;;;0.00;0.00;;;;;;;7.81;77.02;99313.63;7350534;19;20011;-63
2022/03/12 06:42:28;;;;;;;0.00;0.00;;;;;;;7.77;77.09;99317.22;7355811;19;20011;-64
2022/03/12 06:44:54;;;;;;;0.00;0.00;;;;;;;7.76;76.78;99325.94;7349282;19;20121;-63
2022/03/12 06:47:20;;;;;;;0.00;0.00;;;;;;;7.75;77.25;99339.78;7350328;19;20027;-63
2022/03/12 06:49:46;;;;;;;0.00;0.00;;;;;;;7.62;77.17;99322.94;7356166;19;20002;-63
2022/03/12 06:52:11;;;;;;;0.00;0.00;;;;;;;7.71;77.12;99356.41;7355453;19;20035;-63
2022/03/12 06:54:38;;;;;;;0.10;0.10;;;;;;;7.69;77.10;99356.44;7359917;19;20014;-64
2022/03/12 06:57:04;;;;;;;0.00;0.00;;;;;;;7.60;76.74;99358.47;7354036;19;20831;-63
2022/03/12 06:59:31;;;;;;;0.00;0.00;;;;;;;7.70;77.41;99372.88;7321757;19;20022;-63
2022/03/12 07:01:56;;;;;;;0.00;0.00;;;;;;;7.71;77.34;99385.00;7352270;19;20022;-64
2022/03/12 07:04:22;;;;;;;0.10;0.10;;;;;;;7.72;76.93;99377.13;7357601;19;20022;-63
2022/03/12 07:06:48;;;;;;;0.00;0.00;;;;;;;7.73;76.90;99368.44;7364399;19;20483;-63
2022/03/12 07:09:15;;;;;;;0.00;0.00;;;;;;;7.57;76.92;99345.59;7352546;19;20010;-63
2022/03/12 07:11:40;;;;;;;0.00;0.00;;;;;;;7.76;76.94;99380.50;7362303;19;20038;-64
2022/03/12 07:14:06;;;;;;;0.00;0.00;;;;;;;7.64;76.77;99368.72;7359241;19;20018;-63
2022/03/12 07:16:31;;;;;;;0.00;0.00;;;;;;;7.79;77.37;99382.97;7359774;19;20011;-64
2022/03/12 07:18:57;;;;;;;0.00;0.00;;;;;;;7.79;77.17;99377.78;7359531;19;20125;-63
2022/03/12 07:21:24;;;;;;;0.00;0.00;;;;;;;7.80;76.93;99382.91;7354602;19;20026;-63
2022/03/12 07:23:50;;;;;;;0.00;0.00;;;;;;;7.80;76.92;99390.72;7358803;19;20026;-63
2022/03/12 07:26:15;;;;;;;0.00;0.00;;;;;;;7.82;77.08;99393.28;7348310;19;20021;-63
2022/03/12 07:28:41;;;;;;;0.00;0.00;;;;;;;7.82;77.05;99403.69;7351298;19;20042;-64
2022/03/12 07:31:07;;;;;;;0.00;0.00;;;;;;;7.82;76.63;99411.47;7356536;19;20482;-64
2022/03/12 07:33:33;;;;;;;0.00;0.00;;;;;;;7.82;76.88;99419.28;7357887;19;21310;-64
2022/03/12 07:35:59;;;;;;;0.10;0.10;;;;;;;7.84;76.99;99416.63;7353871;19;20625;-63
2022/03/12 07:38:24;;;;;;;0.00;0.00;;;;;;;7.86;76.91;99426.06;7359741;19;20007;-63
2022/03/12 07:40:50;;;;;;;0.10;0.10;;;;;;;7.83;76.79;99423.56;7363185;19;20043;-64
2022/03/12 07:43:16;;;;;;;0.00;0.00;;;;;;;7.91;76.67;99439.78;7278339;19;26995;-64
2022/03/12 07:45:41;;;;;;;0.00;0.00;;;;;;;7.91;76.41;99444.97;1129066;19;10003263;-63
2022/03/12 07:48:07;;;;;;;0.00;0.00;;;;;;;7.94;76.84;99444.84;7352908;19;20010;-63
2022/03/12 07:50:34;;;;;;;0.00;0.00;;;;;;;7.92;76.69;99436.28;7358045;19;20371;-63
2022/03/12 07:53:00;;;;;;;0.00;0.00;;;;;;;7.94;76.89;99438.81;7357704;19;20043;-63
2022/03/12 07:55:25;;;;;;;0.00;0.00;;;;;;;7.94;76.62;99450.06;7351206;19;20007;-63
2022/03/12 07:57:51;;;;;;;0.00;0.00;;;;;;;7.96;76.49;99453.47;7349946;19;20006;-63
2022/03/12 08:00:17;;;;;;;0.00;0.00;;;;;;;7.98;76.51;99446.47;7356002;19;20732;-64
2022/03/12 08:02:45;;;;;;;0.00;0.00;;;;;;;7.99;76.39;99447.31;7367383;19;20015;-64
2022/03/12 08:05:13;;;;;;;0.00;0.00;;;;;;;7.98;76.38;99449.06;7353706;19;20029;-64
2022/03/12 08:07:39;;;;;;;0.00;0.00;;;;;;;7.94;76.57;99439.66;7356727;19;20028;-63
2022/03/12 08:10:06;;;;;;;0.00;0.00;;;;;;;8.00;76.30;99444.66;7356287;19;20596;-63
2022/03/12 08:12:35;;;;;;;0.08;0.08;;;;;;;8.02;76.46;99442.88;7357554;19;20022;-62
2022/03/12 08:15:05;;;;;;;0.10;0.10;;;;;;;8.07;76.86;99440.97;7353275;19;20015;-63
2022/03/12 08:17:31;;;;;;;0.00;0.00;;;;;;;8.04;76.44;99424.63;7352756;19;20020;-63
2022/03/12 08:19:58;;;;;;;0.00;0.00;;;;;;;8.14;76.51;99445.97;7357036;19;20010;-63
2022/03/12 08:22:23;;;;;;;0.00;0.00;;;;;;;8.22;76.54;99459.56;7349054;19;20020;-64
2022/03/12 08:24:49;;;;;;;0.00;0.00;;;;;;;8.28;76.57;99460.22;7352259;19;20015;-63
2022/03/12 08:27:15;;;;;;;0.00;0.00;;;;;;;8.35;76.44;99463.44;7352154;19;20379;-63
2022/03/12 08:29:43;;;;;;;0.00;0.00;;;;;;;8.41;75.97;99463.28;7354593;19;20023;-63
2022/03/12 08:32:10;;;;;;;0.00;0.00;;;;;;;8.37;75.54;99450.44;7338330;19;20014;-63
2022/03/12 08:34:36;;;;;;;0.00;0.00;;;;;;;8.46;75.48;99448.34;7360851;19;20589;-63
2022/03/12 08:37:03;;;;;;;0.03;0.03;;;;;;;8.47;75.85;99460.50;7362588;19;20018;-63
2022/03/12 08:39:28;;;;;;;0.00;0.00;;;;;;;8.51;75.29;99461.22;7351077;19;20035;-64
2022/03/12 08:41:54;;;;;;;0.00;0.00;;;;;;;8.50;75.62;99449.97;7360362;19;20406;-63
2022/03/12 08:44:20;;;;;;;0.00;0.00;;;;;;;8.67;75.90;99456.31;7352408;19;20010;-63
2022/03/12 08:46:46;;;;;;;0.10;0.10;;;;;;;8.84;75.50;99460.06;7359836;19;20493;-63
2022/03/12 08:49:12;;;;;;;0.00;0.00;;;;;;;8.98;75.38;99445.69;7365120;19;20010;-63
2022/03/12 08:51:38;;;;;;;0.00;0.00;;;;;;;9.24;74.93;99452.56;7357135;19;20020;-63
2022/03/12 08:54:05;;;;;;;0.00;0.00;;;;;;;9.39;74.23;99465.00;7355031;19;20910;-63
2022/03/12 08:56:31;;;;;;;0.00;0.00;;;;;;;9.46;74.01;99458.66;7356263;19;20021;-63
2022/03/12 08:58:57;;;;;;;0.00;0.00;;;;;;;9.58;74.20;99458.19;7352961;19;20043;-63
2022/03/12 09:01:24;;;;;;;0.00;0.00;;;;;;;9.82;73.83;99473.78;7356079;19;20010;-64
2022/03/12 09:03:49;;;;;;;0.00;0.00;;;;;;;9.87;73.22;99461.41;7357299;19;20404;-64
2022/03/12 09:06:17;;;;;;;0.00;0.00;;;;;;;10.02;73.64;99478.19;7354818;19;20006;-63
2022/03/12 09:08:44;;;;;;;0.08;0.08;;;;;;;10.08;73.29;99470.97;7356328;19;20463;-63
2022/03/12 09:11:10;;;;;;;0.08;0.08;;;;;;;10.11;72.73;99481.28;7354131;19;20034;-63
2022/03/12 09:13:36;;;;;;;0.00;0.00;;;;;;;10.17;73.36;99492.38;7356359;19;20466;-64
2022/03/12 09:16:01;;;;;;;0.00;0.00;;;;;;;10.18;72.96;99499.31;7351924;19;20031;-63
2022/03/12 09:18:27;;;;;;;0.00;0.00;;;;;;;10.14;72.48;99509.88;7354015;19;20010;-63
2022/03/12 09:20:53;;;;;;;0.00;0.00;;;;;;;10.07;72.83;99497.97;7360199;19;20035;-63
2022/03/12 09:23:21;;;;;;;0.00;0.00;;;;;;;10.10;72.57;99513.50;7354417;19;20010;-64
2022/03/12 09:25:48;;;;;;;0.00;0.00;;;;;;;10.05;72.94;99525.88;7348911;19;20339;-63
2022/03/12 09:28:15;;;;;;;0.00;0.00;;;;;;;10.01;73.47;99519.09;7355210;19;20030;-61
2022/03/12 09:30:41;;;;;;;0.00;0.00;;;;;;;9.94;73.15;99522.84;7344071;19;20006;-63
2022/03/12 09:33:07;;;;;;;0.00;0.00;;;;;;;9.99;73.72;99535.72;7350365;19;20061;-63
2022/03/12 09:35:33;;;;;;;0.00;0.00;;;;;;;9.99;73.44;99526.13;7349041;19;20011;-63
2022/03/12 09:38:01;;;;;;;0.00;0.00;;;;;;;9.99;72.91;99536.56;7356577;19;20014;-64
2022/03/12 09:40:27;;;;;;;0.00;0.00;;;;;;;10.01;72.56;99539.09;7356241;19;20037;-63
2022/03/12 09:42:53;;;;;;;0.00;0.00;;;;;;;9.98;72.71;99545.28;7354898;19;20593;-63
2022/03/12 09:45:21;;;;;;;0.00;0.00;;;;;;;9.95;72.45;99539.34;7364349;19;20019;-63
2022/03/12 09:47:47;;;;;;;0.00;0.00;;;;;;;9.95;72.71;99550.63;7349644;19;20027;-63
2022/03/12 09:50:12;;;;;;;0.00;0.00;;;;;;;9.99;72.76;99557.44;7354697;19;20006;-63
2022/03/12 09:52:38;;;;;;;0.00;0.00;;;;;;;10.07;73.21;99560.56;7351619;19;20011;-63
2022/03/12 09:55:04;;;;;;;0.00;0.00;;;;;;;10.20;72.29;99552.28;7354153;19;20006;-63
2022/03/12 09:57:30;;;;;;;0.00;0.00;;;;;;;10.36;72.73;99556.00;7353721;19;20040;-64
2022/03/12 09:59:56;;;;;;;0.00;0.00;;;;;;;10.53;72.01;99553.56;7356395;19;20014;-63
2022/03/12 10:02:21;;;;;;;0.00;0.00;;;;;;;10.69;72.14;99552.91;7344267;19;20015;-63
2022/03/12 10:04:47;;;;;;;0.00;0.00;;;;;;;10.86;72.03;99555.69;7348281;19;20025;-63
2022/03/12 10:07:12;;;;;;;0.10;0.10;;;;;;;11.10;72.37;99557.25;7346972;19;20006;-63
2022/03/12 10:09:54;;;;;;;0.04;0.04;;;;;;;11.49;72.27;99556.41;2548846;19;10278845;-63
2022/03/12 10:12:19;;;;;;;0.00;0.00;;;;;;;11.77;71.43;99558.63;6639253;19;10001338;-63
2022/03/12 10:14:45;;;;;;;0.00;0.00;;;;;;;12.12;69.94;99557.03;7360000;19;20031;-63
2022/03/12 10:17:11;;;;;;;0.00;0.00;;;;;;;12.51;69.89;99550.78;7362727;19;20115;-62
2022/03/12 10:19:37;;;;;;;0.00;0.00;;;;;;;12.93;68.54;99545.19;7351245;19;20015;-63
2022/03/12 10:22:05;;;;;;;0.10;0.10;;;;;;;13.39;68.54;99542.00;7357203;19;20010;-63
2022/03/12 10:24:31;;;;;;;0.00;0.00;;;;;;;13.84;66.50;99550.94;7347778;19;20050;-63
2022/03/12 10:26:56;;;;;;;0.08;0.08;;;;;;;14.30;65.61;99546.63;7350784;19;20085;-63
2022/03/12 10:29:22;;;;;;;0.10;0.10;;;;;;;14.66;65.00;99538.44;7351341;19;20019;-63
2022/03/12 10:31:48;;;;;;;0.00;0.00;;;;;;;15.03;63.57;99536.28;7345390;19;20010;-62
2022/03/12 10:34:21;;;;;;;0.00;0.00;;;;;;;15.39;63.01;99527.94;7351832;19;20094;-63
2022/03/12 10:36:48;;;;;;;0.00;0.00;;;;;;;15.78;62.49;99540.47;7345848;19;20072;-63
2022/03/12 10:39:15;;;;;;;0.00;0.00;;;;;;;16.06;60.61;99550.09;7355029;19;20057;-63
2022/03/12 10:41:41;;;;;;;0.00;0.00;;;;;;;16.21;59.95;99527.19;7357029;19;20015;-62
2022/03/12 10:44:06;;;;;;;0.10;0.10;;;;;;;16.57;58.68;99555.59;7355621;19;20010;-62
2022/03/12 10:46:35;;;;;;;0.10;0.10;;;;;;;16.82;58.98;99554.81;7358164;19;20052;-62
2022/03/12 10:49:03;;;;;;;0.10;0.10;;;;;;;16.99;58.52;99560.78;7361025;19;20058;-62
2022/03/12 10:51:31;;;;;;;0.00;0.00;;;;;;;17.25;57.33;99561.63;7359807;19;20487;-63
2022/03/12 10:54:07;;;;;;;0.10;0.10;;;;;;;17.55;60.56;99561.31;7360819;19;20014;-62
2022/03/12 10:56:49;;;;;;;0.10;0.10;;;;;;;17.81;58.98;99560.34;7350423;19;20094;-62
2022/03/12 10:59:19;;;;;;;0.00;0.00;;;;;;;17.93;54.54;99563.06;7352637;19;20787;-63
2022/03/12 11:01:56;;;;;;;0.10;0.10;;;;;;;18.30;59.48;99572.69;7350624;19;20018;-62
2022/03/12 11:04:26;;;;;;;0.00;0.00;;;;;;;18.37;52.78;99567.81;7351010;19;20014;-63
2022/03/12 11:06:55;;;;;;;0.00;0.00;;;;;;;18.57;52.33;99572.47;7352519;19;20018;-63
2022/03/12 11:09:38;;;;;;;0.00;0.00;;;;;;;18.84;55.79;99574.03;7349513;19;20474;-63
2022/03/12 11:12:30;;;;;;;0.00;0.00;;;;;;;18.88;56.35;99552.53;7348512;19;20018;-62
2022/03/12 11:15:11;;;;;;;0.10;0.10;;;;;;;19.07;55.96;99567.88;7251909;19;2006323;-62
2022/03/12 11:17:44;;;;;;;0.10;0.10;;;;;;;19.20;51.36;99570.41;7346136;19;20014;-62
2022/03/12 11:20:21;;;;;;;0.00;0.00;;;;;;;19.26;49.60;99582.31;7359715;19;20014;-63
2022/03/12 11:23:04;;;;;;;0.10;0.10;;;;;;;19.23;51.02;99578.13;7356643;19;20366;-62
2022/03/12 11:25:30;;;;;;;0.10;0.10;;;;;;;19.20;48.00;99586.28;7348339;19;20480;-62
2022/03/12 11:28:02;;;;;;;0.00;0.00;;;;;;;19.31;49.98;99586.34;7358392;19;20021;-62
2022/03/12 11:30:30;;;;;;;0.03;0.03;;;;;;;19.24;48.37;99577.16;7358414;19;20019;-62
2022/03/12 11:33:08;;;;;;;0.10;0.10;;;;;;;19.31;51.69;99581.03;7361340;19;20018;-63
2022/03/12 11:35:36;;;;;;;0.10;0.10;;;;;;;19.32;48.56;99580.06;7367849;19;20007;-62
2022/03/12 11:38:20;;;;;;;0.05;0.05;;;;;;;19.41;50.45;99550.25;7366033;19;20018;-63
2022/03/12 11:40:49;;;;;;;0.10;0.10;;;;;;;19.47;45.55;99556.03;7367745;19;20019;-62
2022/03/12 11:43:30;;;;;;;0.10;0.10;;;;;;;19.70;49.39;99560.38;7354654;19;20014;-63
2022/03/12 11:45:59;;;;;;;0.08;0.08;;;;;;;19.51;45.27;99533.63;7360019;19;20014;-63